sensor_id;sensor_type;location;lat;lon;timestamp;temperature;humidity
19340;HTU21D;9804;52.350;6.684;2024-03-23T00:55:19;9.94;-6.00
19340;HTU21D;9804;52.350;6.684;2024-03-23T00:57:45;9.94;-6.00
19340;HTU21D;9804;52.350;6.684;2024-03-23T01:00:11;10.21;-6.00
19340;HTU21D;9804;52.350;6.684;2024-03-23T01:02:37;10.08;-6.00
19340;HTU21D;9804;52.350;6.684;2024-03-23T01:05:03;9.98;-6.00
19340;HTU21D;9804;52.350;6.684;2024-03-23T01:07:28;10.21;-6.00
19340;HTU21D;9804;52.350;6.684;2024-03-23T01:09:53;10.04;-6.00
19340;HTU21D;9804;52.350;6.684;2024-03-23T01:12:19;10.19;-6.00
19340;HTU21D;9804;52.350;6.684;2024-03-23T01:14:44;10.11;-6.00
19340;HTU21D;9804;52.350;6.684;2024-03-23T01:17:10;10.11;-6.00
19340;HTU21D;9804;52.350;6.684;2024-03-23T01:19:35;10.06;-6.00
19340;HTU21D;9804;52.350;6.684;2024-03-23T01:22:01;9.94;-6.00
19340;HTU21D;9804;52.350;6.684;2024-03-23T01:24:26;9.99;-6.00
19340;HTU21D;9804;52.350;6.684;2024-03-23T01:26:52;9.84;-6.00
19340;HTU21D;9804;52.350;6.684;2024-03-23T01:29:17;9.88;-6.00
19340;HTU21D;9804;52.350;6.684;2024-03-23T01:31:42;9.93;-6.00
19340;HTU21D;9804;52.350;6.684;2024-03-23T01:34:08;9.90;-6.00
19340;HTU21D;9804;52.350;6.684;2024-03-23T01:36:33;9.82;-6.00
19340;HTU21D;9804;52.350;6.684;2024-03-23T01:38:59;9.71;-6.00
19340;HTU21D;9804;52.350;6.684;2024-03-23T01:41:24;9.68;-6.00
19340;HTU21D;9804;52.350;6.684;2024-03-23T01:43:50;9.69;-6.00
19340;HTU21D;9804;52.350;6.684;2024-03-23T01:46:16;9.85;-6.00
19340;HTU21D;9804;52.350;6.684;2024-03-23T01:48:42;9.76;-6.00
19340;HTU21D;9804;52.350;6.684;2024-03-23T01:51:07;9.79;-6.00
19340;HTU21D;9804;52.350;6.684;2024-03-23T01:53:33;9.99;-6.00
19340;HTU21D;9804;52.350;6.684;2024-03-23T01:55:58;10.01;-6.00
19340;HTU21D;9804;52.350;6.684;2024-03-23T01:58:24;9.96;-6.00
19340;HTU21D;9804;52.350;6.684;2024-03-23T02:00:49;9.94;-6.00
19340;HTU21D;9804;52.350;6.684;2024-03-23T02:03:27;9.71;-6.00
19340;HTU21D;9804;52.350;6.684;2024-03-23T02:05:54;9.82;-6.00
19340;HTU21D;9804;52.350;6.684;2024-03-23T02:08:21;9.86;-6.00
19340;HTU21D;9804;52.350;6.684;2024-03-23T02:10:48;9.67;-6.00
19340;HTU21D;9804;52.350;6.684;2024-03-23T02:13:15;9.70;-6.00
19340;HTU21D;9804;52.350;6.684;2024-03-23T02:15:41;9.76;-6.00
19340;HTU21D;9804;52.350;6.684;2024-03-23T02:18:07;9.80;-6.00
19340;HTU21D;9804;52.350;6.684;2024-03-23T02:20:34;9.78;-6.00
19340;HTU21D;9804;52.350;6.684;2024-03-23T02:22:59;9.75;-6.00
19340;HTU21D;9804;52.350;6.684;2024-03-23T02:25:24;9.77;-6.00
19340;HTU21D;9804;52.350;6.684;2024-03-23T02:27:50;9.52;-6.00
19340;HTU21D;9804;52.350;6.684;2024-03-23T02:30:15;9.59;-6.00
19340;HTU21D;9804;52.350;6.684;2024-03-23T02:32:41;9.59;-6.00
19340;HTU21D;9804;52.350;6.684;2024-03-23T02:35:06;9.54;-6.00
19340;HTU21D;9804;52.350;6.684;2024-03-23T02:37:32;9.49;-6.00
19340;HTU21D;9804;52.350;6.684;2024-03-23T02:39:58;9.40;-6.00
19340;HTU21D;9804;52.350;6.684;2024-03-23T02:42:23;9.41;-6.00
19340;HTU21D;9804;52.350;6.684;2024-03-23T02:44:49;9.31;-6.00
19340;HTU21D;9804;52.350;6.684;2024-03-23T02:47:14;9.21;-6.00
19340;HTU21D;9804;52.350;6.684;2024-03-23T02:49:40;9.10;-6.00
19340;HTU21D;9804;52.350;6.684;2024-03-23T02:52:05;9.22;-6.00
19340;HTU21D;9804;52.350;6.684;2024-03-23T02:54:31;9.14;-6.00
19340;HTU21D;9804;52.350;6.684;2024-03-23T02:56:56;9.09;-6.00
19340;HTU21D;9804;52.350;6.684;2024-03-23T02:59:21;9.07;-6.00
19340;HTU21D;9804;52.350;6.684;2024-03-23T03:01:47;9.06;-6.00
19340;HTU21D;9804;52.350;6.684;2024-03-23T03:04:12;9.01;-6.00
19340;HTU21D;9804;52.350;6.684;2024-03-23T03:06:38;8.88;-6.00
19340;HTU21D;9804;52.350;6.684;2024-03-23T03:09:03;8.92;-6.00
19340;HTU21D;9804;52.350;6.684;2024-03-23T03:11:29;8.90;-6.00
19340;HTU21D;9804;52.350;6.684;2024-03-23T03:13:55;8.77;-6.00
19340;HTU21D;9804;52.350;6.684;2024-03-23T03:16:20;8.74;-6.00
19340;HTU21D;9804;52.350;6.684;2024-03-23T03:18:46;8.73;-6.00
19340;HTU21D;9804;52.350;6.684;2024-03-23T03:21:12;8.75;-6.00
19340;HTU21D;9804;52.350;6.684;2024-03-23T03:23:38;8.65;-6.00
19340;HTU21D;9804;52.350;6.684;2024-03-23T03:26:04;8.73;-6.00
19340;HTU21D;9804;52.350;6.684;2024-03-23T03:28:33;8.72;-6.00
19340;HTU21D;9804;52.350;6.684;2024-03-23T03:31:00;8.62;-6.00
19340;HTU21D;9804;52.350;6.684;2024-03-23T03:33:29;8.62;-6.00
19340;HTU21D;9804;52.350;6.684;2024-03-23T03:35:55;8.63;-6.00
19340;HTU21D;9804;52.350;6.684;2024-03-23T03:38:20;8.70;-6.00
19340;HTU21D;9804;52.350;6.684;2024-03-23T03:40:46;8.72;-6.00
19340;HTU21D;9804;52.350;6.684;2024-03-23T03:43:11;8.59;-6.00
19340;HTU21D;9804;52.350;6.684;2024-03-23T03:45:37;8.52;-6.00
19340;HTU21D;9804;52.350;6.684;2024-03-23T03:48:03;8.42;-6.00
19340;HTU21D;9804;52.350;6.684;2024-03-23T03:50:28;8.44;-6.00
19340;HTU21D;9804;52.350;6.684;2024-03-23T03:52:54;8.28;-6.00
19340;HTU21D;9804;52.350;6.684;2024-03-23T03:55:19;8.45;-6.00
19340;HTU21D;9804;52.350;6.684;2024-03-23T03:57:45;8.36;-6.00
19340;HTU21D;9804;52.350;6.684;2024-03-23T04:00:10;8.47;-6.00
19340;HTU21D;9804;52.350;6.684;2024-03-23T04:02:39;8.41;-6.00
19340;HTU21D;9804;52.350;6.684;2024-03-23T04:05:05;8.32;-6.00
19340;HTU21D;9804;52.350;6.684;2024-03-23T04:07:31;8.29;-6.00
19340;HTU21D;9804;52.350;6.684;2024-03-23T04:09:56;8.41;-6.00
19340;HTU21D;9804;52.350;6.684;2024-03-23T04:12:23;8.33;-6.00
19340;HTU21D;9804;52.350;6.684;2024-03-23T04:14:48;8.28;-6.00
19340;HTU21D;9804;52.350;6.684;2024-03-23T04:17:14;8.23;-6.00
19340;HTU21D;9804;52.350;6.684;2024-03-23T04:19:39;8.31;-6.00
19340;HTU21D;9804;52.350;6.684;2024-03-23T04:22:05;8.20;-6.00
19340;HTU21D;9804;52.350;6.684;2024-03-23T04:24:30;8.16;-6.00
19340;HTU21D;9804;52.350;6.684;2024-03-23T04:26:56;8.19;-6.00
19340;HTU21D;9804;52.350;6.684;2024-03-23T04:29:21;8.23;-6.00
19340;HTU21D;9804;52.350;6.684;2024-03-23T04:31:47;8.19;-6.00
19340;HTU21D;9804;52.350;6.684;2024-03-23T04:34:13;8.31;-6.00
19340;HTU21D;9804;52.350;6.684;2024-03-23T04:36:39;8.07;-6.00
19340;HTU21D;9804;52.350;6.684;2024-03-23T04:39:05;8.16;-6.00
19340;HTU21D;9804;52.350;6.684;2024-03-23T04:41:34;8.12;-6.00
19340;HTU21D;9804;52.350;6.684;2024-03-23T04:44:00;8.05;-6.00
19340;HTU21D;9804;52.350;6.684;2024-03-23T04:46:26;8.12;-6.00
19340;HTU21D;9804;52.350;6.684;2024-03-23T04:48:51;8.08;-6.00
19340;HTU21D;9804;52.350;6.684;2024-03-23T04:51:23;8.08;-6.00
19340;HTU21D;9804;52.350;6.684;2024-03-23T04:53:48;8.02;-6.00
19340;HTU21D;9804;52.350;6.684;2024-03-23T04:56:17;8.04;-6.00
19340;HTU21D;9804;52.350;6.684;2024-03-23T04:58:43;8.01;-6.00
19340;HTU21D;9804;52.350;6.684;2024-03-23T05:01:09;7.92;-6.00
19340;HTU21D;9804;52.350;6.684;2024-03-23T05:03:34;7.96;-6.00
19340;HTU21D;9804;52.350;6.684;2024-03-23T05:06:00;8.08;-6.00
19340;HTU21D;9804;52.350;6.684;2024-03-23T05:08:25;7.96;-6.00
19340;HTU21D;9804;52.350;6.684;2024-03-23T05:10:51;7.93;-6.00
19340;HTU21D;9804;52.350;6.684;2024-03-23T05:13:16;7.99;-6.00
19340;HTU21D;9804;52.350;6.684;2024-03-23T05:15:41;8.04;-6.00
19340;HTU21D;9804;52.350;6.684;2024-03-23T05:18:07;7.94;-6.00
19340;HTU21D;9804;52.350;6.684;2024-03-23T05:20:32;7.92;-6.00
19340;HTU21D;9804;52.350;6.684;2024-03-23T05:22:58;7.96;-6.00
19340;HTU21D;9804;52.350;6.684;2024-03-23T05:25:23;7.91;-6.00
19340;HTU21D;9804;52.350;6.684;2024-03-23T05:27:49;7.92;-6.00
19340;HTU21D;9804;52.350;6.684;2024-03-23T05:30:15;7.90;-6.00
19340;HTU21D;9804;52.350;6.684;2024-03-23T05:32:40;7.89;-6.00
19340;HTU21D;9804;52.350;6.684;2024-03-23T05:35:07;7.90;-6.00
19340;HTU21D;9804;52.350;6.684;2024-03-23T05:37:33;7.92;-6.00
19340;HTU21D;9804;52.350;6.684;2024-03-23T05:40:03;7.85;-6.00
19340;HTU21D;9804;52.350;6.684;2024-03-23T05:42:29;7.84;-6.00
19340;HTU21D;9804;52.350;6.684;2024-03-23T05:44:54;7.90;-6.00
19340;HTU21D;9804;52.350;6.684;2024-03-23T05:47:19;7.89;-6.00
19340;HTU21D;9804;52.350;6.684;2024-03-23T05:49:46;7.87;-6.00
19340;HTU21D;9804;52.350;6.684;2024-03-23T05:52:11;7.84;-6.00
19340;HTU21D;9804;52.350;6.684;2024-03-23T05:54:37;7.87;-6.00
19340;HTU21D;9804;52.350;6.684;2024-03-23T05:57:03;7.87;-6.00
19340;HTU21D;9804;52.350;6.684;2024-03-23T05:59:29;7.86;-6.00
19340;HTU21D;9804;52.350;6.684;2024-03-23T06:01:54;7.94;-6.00
19340;HTU21D;9804;52.350;6.684;2024-03-23T06:04:20;7.74;-6.00
19340;HTU21D;9804;52.350;6.684;2024-03-23T06:06:46;7.83;-6.00
19340;HTU21D;9804;52.350;6.684;2024-03-23T06:09:12;7.86;-6.00
19340;HTU21D;9804;52.350;6.684;2024-03-23T06:11:37;7.92;-6.00
19340;HTU21D;9804;52.350;6.684;2024-03-23T06:14:03;7.93;-6.00
19340;HTU21D;9804;52.350;6.684;2024-03-23T06:16:29;7.91;-6.00
19340;HTU21D;9804;52.350;6.684;2024-03-23T06:18:56;7.99;-6.00
19340;HTU21D;9804;52.350;6.684;2024-03-23T06:21:21;7.98;-6.00
19340;HTU21D;9804;52.350;6.684;2024-03-23T06:23:51;7.91;-6.00
19340;HTU21D;9804;52.350;6.684;2024-03-23T06:26:21;7.91;-6.00
19340;HTU21D;9804;52.350;6.684;2024-03-23T06:28:47;8.02;-6.00
19340;HTU21D;9804;52.350;6.684;2024-03-23T06:31:12;8.17;-6.00
19340;HTU21D;9804;52.350;6.684;2024-03-23T06:33:38;8.32;-6.00
19340;HTU21D;9804;52.350;6.684;2024-03-23T06:36:05;8.55;-6.00
19340;HTU21D;9804;52.350;6.684;2024-03-23T06:38:30;8.38;-6.00
19340;HTU21D;9804;52.350;6.684;2024-03-23T06:40:56;8.38;-6.00
19340;HTU21D;9804;52.350;6.684;2024-03-23T06:43:21;8.34;-6.00
19340;HTU21D;9804;52.350;6.684;2024-03-23T06:45:53;8.48;-6.00
19340;HTU21D;9804;52.350;6.684;2024-03-23T06:48:19;8.59;-6.00
19340;HTU21D;9804;52.350;6.684;2024-03-23T06:50:45;8.41;-6.00
19340;HTU21D;9804;52.350;6.684;2024-03-23T06:53:12;8.44;-6.00
19340;HTU21D;9804;52.350;6.684;2024-03-23T06:55:37;8.44;-6.00
19340;HTU21D;9804;52.350;6.684;2024-03-23T06:58:03;8.53;-6.00
19340;HTU21D;9804;52.350;6.684;2024-03-23T07:00:29;8.55;-6.00
19340;HTU21D;9804;52.350;6.684;2024-03-23T07:02:54;8.68;-6.00
19340;HTU21D;9804;52.350;6.684;2024-03-23T07:05:20;8.88;-6.00
19340;HTU21D;9804;52.350;6.684;2024-03-23T07:07:45;8.81;-6.00
19340;HTU21D;9804;52.350;6.684;2024-03-23T07:10:11;9.08;-6.00
19340;HTU21D;9804;52.350;6.684;2024-03-23T07:12:36;8.73;-6.00
19340;HTU21D;9804;52.350;6.684;2024-03-23T07:15:02;9.11;-6.00
19340;HTU21D;9804;52.350;6.684;2024-03-23T07:17:28;8.89;-6.00
19340;HTU21D;9804;52.350;6.684;2024-03-23T07:19:53;8.71;-6.00
19340;HTU21D;9804;52.350;6.684;2024-03-23T07:22:18;8.59;-6.00
19340;HTU21D;9804;52.350;6.684;2024-03-23T07:24:44;8.63;-6.00
19340;HTU21D;9804;52.350;6.684;2024-03-23T07:27:09;8.75;-6.00
19340;HTU21D;9804;52.350;6.684;2024-03-23T07:29:38;8.72;-6.00
19340;HTU21D;9804;52.350;6.684;2024-03-23T07:32:04;8.66;-6.00
19340;HTU21D;9804;52.350;6.684;2024-03-23T07:34:29;8.81;-6.00
19340;HTU21D;9804;52.350;6.684;2024-03-23T07:36:55;8.92;-6.00
19340;HTU21D;9804;52.350;6.684;2024-03-23T07:39:20;8.83;-6.00
19340;HTU21D;9804;52.350;6.684;2024-03-23T07:41:45;8.64;-6.00
19340;HTU21D;9804;52.350;6.684;2024-03-23T07:44:11;8.62;-6.00
19340;HTU21D;9804;52.350;6.684;2024-03-23T07:46:37;8.58;-6.00
19340;HTU21D;9804;52.350;6.684;2024-03-23T07:49:04;8.66;-6.00
19340;HTU21D;9804;52.350;6.684;2024-03-23T07:51:29;8.86;-6.00
19340;HTU21D;9804;52.350;6.684;2024-03-23T07:53:55;9.20;-6.00
19340;HTU21D;9804;52.350;6.684;2024-03-23T07:56:20;9.24;-6.00
19340;HTU21D;9804;52.350;6.684;2024-03-23T07:58:47;9.09;-6.00
19340;HTU21D;9804;52.350;6.684;2024-03-23T08:01:16;9.35;-6.00
19340;HTU21D;9804;52.350;6.684;2024-03-23T08:03:46;9.48;-6.00
19340;HTU21D;9804;52.350;6.684;2024-03-23T08:08:37;9.61;-6.00
19340;HTU21D;9804;52.350;6.684;2024-03-23T08:11:03;9.36;-6.00
19340;HTU21D;9804;52.350;6.684;2024-03-23T08:13:31;9.60;-6.00
19340;HTU21D;9804;52.350;6.684;2024-03-23T08:16:01;9.66;-6.00
19340;HTU21D;9804;52.350;6.684;2024-03-23T08:18:27;9.76;-6.00
19340;HTU21D;9804;52.350;6.684;2024-03-23T08:23:26;9.91;-6.00
19340;HTU21D;9804;52.350;6.684;2024-03-23T08:25:57;9.82;-6.00
19340;HTU21D;9804;52.350;6.684;2024-03-23T08:28:23;10.22;-6.00
19340;HTU21D;9804;52.350;6.684;2024-03-23T08:30:48;10.41;-6.00
19340;HTU21D;9804;52.350;6.684;2024-03-23T08:33:14;10.81;-6.00
19340;HTU21D;9804;52.350;6.684;2024-03-23T08:35:41;10.98;-6.00
19340;HTU21D;9804;52.350;6.684;2024-03-23T08:38:06;11.17;-6.00
19340;HTU21D;9804;52.350;6.684;2024-03-23T08:40:32;10.80;-6.00
19340;HTU21D;9804;52.350;6.684;2024-03-23T08:42:57;10.43;-6.00
19340;HTU21D;9804;52.350;6.684;2024-03-23T08:45:24;10.51;-6.00
19340;HTU21D;9804;52.350;6.684;2024-03-23T08:47:50;10.69;-6.00
19340;HTU21D;9804;52.350;6.684;2024-03-23T08:50:15;11.13;-6.00
19340;HTU21D;9804;52.350;6.684;2024-03-23T08:52:41;10.82;-6.00
19340;HTU21D;9804;52.350;6.684;2024-03-23T08:55:07;11.60;-6.00
19340;HTU21D;9804;52.350;6.684;2024-03-23T08:57:32;11.82;-6.00
19340;HTU21D;9804;52.350;6.684;2024-03-23T08:59:57;11.09;-6.00
19340;HTU21D;9804;52.350;6.684;2024-03-23T09:02:23;11.16;-6.00
19340;HTU21D;9804;52.350;6.684;2024-03-23T09:04:48;11.30;-6.00
19340;HTU21D;9804;52.350;6.684;2024-03-23T09:07:14;11.44;-6.00
19340;HTU21D;9804;52.350;6.684;2024-03-23T09:09:39;11.66;-6.00
19340;HTU21D;9804;52.350;6.684;2024-03-23T09:12:05;11.67;-6.00
19340;HTU21D;9804;52.350;6.684;2024-03-23T09:14:32;11.36;-6.00
19340;HTU21D;9804;52.350;6.684;2024-03-23T09:16:57;11.41;-6.00
19340;HTU21D;9804;52.350;6.684;2024-03-23T09:19:23;11.70;-6.00
19340;HTU21D;9804;52.350;6.684;2024-03-23T09:21:49;11.40;-6.00
19340;HTU21D;9804;52.350;6.684;2024-03-23T09:24:14;11.48;-6.00
19340;HTU21D;9804;52.350;6.684;2024-03-23T09:26:40;11.55;-6.00
19340;HTU21D;9804;52.350;6.684;2024-03-23T09:29:05;11.58;-6.00
19340;HTU21D;9804;52.350;6.684;2024-03-23T09:31:30;11.01;-6.00
19340;HTU21D;9804;52.350;6.684;2024-03-23T09:33:58;10.31;-6.00
19340;HTU21D;9804;52.350;6.684;2024-03-23T09:36:23;10.25;-6.00
19340;HTU21D;9804;52.350;6.684;2024-03-23T09:38:48;9.69;-6.00
19340;HTU21D;9804;52.350;6.684;2024-03-23T09:41:14;10.04;-6.00
19340;HTU21D;9804;52.350;6.684;2024-03-23T09:43:40;10.12;-6.00
19340;HTU21D;9804;52.350;6.684;2024-03-23T09:46:05;10.28;-6.00
19340;HTU21D;9804;52.350;6.684;2024-03-23T09:48:32;10.69;-6.00
19340;HTU21D;9804;52.350;6.684;2024-03-23T09:50:58;10.66;-6.00
19340;HTU21D;9804;52.350;6.684;2024-03-23T09:53:24;10.67;-6.00
19340;HTU21D;9804;52.350;6.684;2024-03-23T09:55:49;10.97;-6.00
19340;HTU21D;9804;52.350;6.684;2024-03-23T09:58:18;11.13;-6.00
19340;HTU21D;9804;52.350;6.684;2024-03-23T10:00:44;11.20;-6.00
19340;HTU21D;9804;52.350;6.684;2024-03-23T10:03:09;10.84;-6.00
19340;HTU21D;9804;52.350;6.684;2024-03-23T10:05:37;10.83;-6.00
19340;HTU21D;9804;52.350;6.684;2024-03-23T10:08:28;10.52;-6.00
19340;HTU21D;9804;52.350;6.684;2024-03-23T10:10:54;10.62;-6.00
19340;HTU21D;9804;52.350;6.684;2024-03-23T10:13:27;10.81;-6.00
19340;HTU21D;9804;52.350;6.684;2024-03-23T10:15:56;10.51;-6.00
19340;HTU21D;9804;52.350;6.684;2024-03-23T10:18:23;10.80;-6.00
19340;HTU21D;9804;52.350;6.684;2024-03-23T10:23:32;11.09;-6.00
19340;HTU21D;9804;52.350;6.684;2024-03-23T10:26:19;11.49;-6.00
19340;HTU21D;9804;52.350;6.684;2024-03-23T10:29:00;11.56;-6.00
19340;HTU21D;9804;52.350;6.684;2024-03-23T10:31:30;11.83;-6.00
19340;HTU21D;9804;52.350;6.684;2024-03-23T10:33:56;12.31;-6.00
19340;HTU21D;9804;52.350;6.684;2024-03-23T10:36:23;11.98;-6.00
19340;HTU21D;9804;52.350;6.684;2024-03-23T10:38:50;12.15;-6.00
19340;HTU21D;9804;52.350;6.684;2024-03-23T10:41:16;11.55;-6.00
19340;HTU21D;9804;52.350;6.684;2024-03-23T10:43:42;10.51;-6.00
19340;HTU21D;9804;52.350;6.684;2024-03-23T10:46:08;9.21;-6.00
19340;HTU21D;9804;52.350;6.684;2024-03-23T10:48:34;8.81;-6.00
19340;HTU21D;9804;52.350;6.684;2024-03-23T10:51:00;9.14;-6.00
19340;HTU21D;9804;52.350;6.684;2024-03-23T10:53:27;9.09;-6.00
19340;HTU21D;9804;52.350;6.684;2024-03-23T10:55:54;9.11;-6.00
19340;HTU21D;9804;52.350;6.684;2024-03-23T10:58:25;9.40;-6.00
19340;HTU21D;9804;52.350;6.684;2024-03-23T11:00:52;9.50;-6.00
19340;HTU21D;9804;52.350;6.684;2024-03-23T11:03:31;9.57;-6.00
19340;HTU21D;9804;52.350;6.684;2024-03-23T11:05:58;10.12;-6.00
19340;HTU21D;9804;52.350;6.684;2024-03-23T11:08:31;9.97;-6.00
19340;HTU21D;9804;52.350;6.684;2024-03-23T11:11:12;9.89;-6.00
19340;HTU21D;9804;52.350;6.684;2024-03-23T11:13:38;10.03;-6.00
19340;HTU21D;9804;52.350;6.684;2024-03-23T11:16:14;10.26;-6.00
19340;HTU21D;9804;52.350;6.684;2024-03-23T11:18:40;10.29;-6.00
19340;HTU21D;9804;52.350;6.684;2024-03-23T11:21:07;10.52;-6.00
19340;HTU21D;9804;52.350;6.684;2024-03-23T11:23:32;10.35;-6.00
19340;HTU21D;9804;52.350;6.684;2024-03-23T11:25:57;9.80;-6.00
19340;HTU21D;9804;52.350;6.684;2024-03-23T11:28:23;9.79;-6.00
19340;HTU21D;9804;52.350;6.684;2024-03-23T11:30:48;9.97;-6.00
19340;HTU21D;9804;52.350;6.684;2024-03-23T11:33:14;9.78;-6.00
19340;HTU21D;9804;52.350;6.684;2024-03-23T11:35:41;9.54;-6.00
19340;HTU21D;9804;52.350;6.684;2024-03-23T11:38:13;9.77;-6.00
19340;HTU21D;9804;52.350;6.684;2024-03-23T11:40:44;9.71;-6.00
19340;HTU21D;9804;52.350;6.684;2024-03-23T11:43:13;9.52;-6.00
19340;HTU21D;9804;52.350;6.684;2024-03-23T11:45:42;9.21;-6.00
19340;HTU21D;9804;52.350;6.684;2024-03-23T11:48:18;9.03;-6.00
19340;HTU21D;9804;52.350;6.684;2024-03-23T11:50:46;9.45;-6.00
19340;HTU21D;9804;52.350;6.684;2024-03-23T11:53:17;9.85;-6.00
19340;HTU21D;9804;52.350;6.684;2024-03-23T11:58:12;10.31;-6.00
19340;HTU21D;9804;52.350;6.684;2024-03-23T12:00:38;10.19;-6.00
19340;HTU21D;9804;52.350;6.684;2024-03-23T12:03:04;9.93;-6.00
19340;HTU21D;9804;52.350;6.684;2024-03-23T12:05:31;10.09;-6.00
19340;HTU21D;9804;52.350;6.684;2024-03-23T12:10:44;10.42;-6.00
19340;HTU21D;9804;52.350;6.684;2024-03-23T12:13:10;10.70;-6.00
19340;HTU21D;9804;52.350;6.684;2024-03-23T12:15:36;11.02;-6.00
19340;HTU21D;9804;52.350;6.684;2024-03-23T12:18:11;11.17;-6.00
19340;HTU21D;9804;52.350;6.684;2024-03-23T12:20:37;10.97;-6.00
19340;HTU21D;9804;52.350;6.684;2024-03-23T12:23:10;11.15;-6.00
19340;HTU21D;9804;52.350;6.684;2024-03-23T12:25:37;10.45;-6.00
19340;HTU21D;9804;52.350;6.684;2024-03-23T12:28:03;8.87;-6.00
19340;HTU21D;9804;52.350;6.684;2024-03-23T12:30:30;8.74;-6.00
19340;HTU21D;9804;52.350;6.684;2024-03-23T12:32:55;8.34;-6.00
19340;HTU21D;9804;52.350;6.684;2024-03-23T12:35:20;8.41;-6.00
19340;HTU21D;9804;52.350;6.684;2024-03-23T12:37:46;8.86;-6.00
19340;HTU21D;9804;52.350;6.684;2024-03-23T12:40:11;9.64;-6.00
19340;HTU21D;9804;52.350;6.684;2024-03-23T12:42:37;9.69;-6.00
19340;HTU21D;9804;52.350;6.684;2024-03-23T12:45:03;9.76;-6.00
19340;HTU21D;9804;52.350;6.684;2024-03-23T12:47:30;9.61;-6.00
19340;HTU21D;9804;52.350;6.684;2024-03-23T12:49:55;10.14;-6.00
19340;HTU21D;9804;52.350;6.684;2024-03-23T12:52:21;10.27;-6.00
19340;HTU21D;9804;52.350;6.684;2024-03-23T12:54:48;10.48;-6.00
19340;HTU21D;9804;52.350;6.684;2024-03-23T12:57:13;10.74;-6.00
19340;HTU21D;9804;52.350;6.684;2024-03-23T12:59:39;10.59;-6.00
19340;HTU21D;9804;52.350;6.684;2024-03-23T13:02:04;10.70;-6.00
19340;HTU21D;9804;52.350;6.684;2024-03-23T13:04:29;10.79;-6.00
19340;HTU21D;9804;52.350;6.684;2024-03-23T13:06:55;11.15;-6.00
19340;HTU21D;9804;52.350;6.684;2024-03-23T13:09:21;11.23;-6.00
19340;HTU21D;9804;52.350;6.684;2024-03-23T13:11:46;11.43;-6.00
19340;HTU21D;9804;52.350;6.684;2024-03-23T13:14:12;11.57;-6.00
19340;HTU21D;9804;52.350;6.684;2024-03-23T13:16:39;11.31;-6.00
19340;HTU21D;9804;52.350;6.684;2024-03-23T13:19:05;11.53;-6.00
19340;HTU21D;9804;52.350;6.684;2024-03-23T13:21:30;11.96;-6.00
19340;HTU21D;9804;52.350;6.684;2024-03-23T13:23:55;11.52;-6.00
19340;HTU21D;9804;52.350;6.684;2024-03-23T13:26:21;10.95;-6.00
19340;HTU21D;9804;52.350;6.684;2024-03-23T13:28:46;11.08;-6.00
19340;HTU21D;9804;52.350;6.684;2024-03-23T13:31:12;11.28;-6.00
19340;HTU21D;9804;52.350;6.684;2024-03-23T13:33:37;11.51;-6.00
19340;HTU21D;9804;52.350;6.684;2024-03-23T13:36:03;11.10;-6.00
19340;HTU21D;9804;52.350;6.684;2024-03-23T13:38:28;11.66;-6.00
19340;HTU21D;9804;52.350;6.684;2024-03-23T13:40:58;11.97;-6.00
19340;HTU21D;9804;52.350;6.684;2024-03-23T13:43:25;12.23;-6.00
19340;HTU21D;9804;52.350;6.684;2024-03-23T13:45:56;11.98;-6.00
19340;HTU21D;9804;52.350;6.684;2024-03-23T13:48:23;12.07;-6.00
19340;HTU21D;9804;52.350;6.684;2024-03-23T13:51:04;12.00;-6.00
19340;HTU21D;9804;52.350;6.684;2024-03-23T13:53:30;12.35;-6.00
19340;HTU21D;9804;52.350;6.684;2024-03-23T13:55:57;12.18;-6.00
19340;HTU21D;9804;52.350;6.684;2024-03-23T13:58:23;12.16;-6.00
19340;HTU21D;9804;52.350;6.684;2024-03-23T14:00:52;11.64;-6.00
19340;HTU21D;9804;52.350;6.684;2024-03-23T14:03:17;11.85;-6.00
19340;HTU21D;9804;52.350;6.684;2024-03-23T14:05:44;12.04;-6.00
19340;HTU21D;9804;52.350;6.684;2024-03-23T14:08:10;11.30;-6.00
19340;HTU21D;9804;52.350;6.684;2024-03-23T14:10:37;11.16;-6.00
19340;HTU21D;9804;52.350;6.684;2024-03-23T14:13:05;10.92;-6.00
19340;HTU21D;9804;52.350;6.684;2024-03-23T14:15:30;10.85;-6.00
19340;HTU21D;9804;52.350;6.684;2024-03-23T14:17:56;10.71;-6.00
19340;HTU21D;9804;52.350;6.684;2024-03-23T14:20:22;11.09;-6.00
19340;HTU21D;9804;52.350;6.684;2024-03-23T14:22:50;10.74;-6.00
19340;HTU21D;9804;52.350;6.684;2024-03-23T14:25:16;11.13;-6.00
19340;HTU21D;9804;52.350;6.684;2024-03-23T14:27:44;11.15;-6.00
19340;HTU21D;9804;52.350;6.684;2024-03-23T14:30:10;11.14;-6.00
19340;HTU21D;9804;52.350;6.684;2024-03-23T14:32:37;10.97;-6.00
19340;HTU21D;9804;52.350;6.684;2024-03-23T14:35:03;11.11;-6.00
19340;HTU21D;9804;52.350;6.684;2024-03-23T14:37:29;11.17;-6.00
19340;HTU21D;9804;52.350;6.684;2024-03-23T14:39:57;11.40;-6.00
19340;HTU21D;9804;52.350;6.684;2024-03-23T14:42:23;11.20;-6.00
19340;HTU21D;9804;52.350;6.684;2024-03-23T14:44:49;11.59;-6.00
19340;HTU21D;9804;52.350;6.684;2024-03-23T14:47:15;11.64;-6.00
19340;HTU21D;9804;52.350;6.684;2024-03-23T14:49:41;11.47;-6.00
19340;HTU21D;9804;52.350;6.684;2024-03-23T14:52:06;11.76;-6.00
19340;HTU21D;9804;52.350;6.684;2024-03-23T14:54:34;11.34;-6.00
19340;HTU21D;9804;52.350;6.684;2024-03-23T14:57:00;11.39;-6.00
19340;HTU21D;9804;52.350;6.684;2024-03-23T14:59:25;11.41;-6.00
19340;HTU21D;9804;52.350;6.684;2024-03-23T15:01:51;11.26;-6.00
19340;HTU21D;9804;52.350;6.684;2024-03-23T15:04:16;11.24;-6.00
19340;HTU21D;9804;52.350;6.684;2024-03-23T15:06:42;11.55;-6.00
19340;HTU21D;9804;52.350;6.684;2024-03-23T15:09:07;11.53;-6.00
19340;HTU21D;9804;52.350;6.684;2024-03-23T15:11:36;11.11;-6.00
19340;HTU21D;9804;52.350;6.684;2024-03-23T15:14:01;10.80;-6.00
19340;HTU21D;9804;52.350;6.684;2024-03-23T15:16:27;10.97;-6.00
19340;HTU21D;9804;52.350;6.684;2024-03-23T15:18:52;10.88;-6.00
19340;HTU21D;9804;52.350;6.684;2024-03-23T15:21:18;10.71;-6.00
19340;HTU21D;9804;52.350;6.684;2024-03-23T15:23:46;10.64;-6.00
19340;HTU21D;9804;52.350;6.684;2024-03-23T15:26:12;10.60;-6.00
19340;HTU21D;9804;52.350;6.684;2024-03-23T15:28:38;10.58;-6.00
19340;HTU21D;9804;52.350;6.684;2024-03-23T15:31:06;10.82;-6.00
19340;HTU21D;9804;52.350;6.684;2024-03-23T15:33:32;10.78;-6.00
19340;HTU21D;9804;52.350;6.684;2024-03-23T15:36:04;10.72;-6.00
19340;HTU21D;9804;52.350;6.684;2024-03-23T15:38:31;10.87;-6.00
19340;HTU21D;9804;52.350;6.684;2024-03-23T15:40:57;11.14;-6.00
19340;HTU21D;9804;52.350;6.684;2024-03-23T15:43:23;11.29;-6.00
19340;HTU21D;9804;52.350;6.684;2024-03-23T15:45:58;11.49;-6.00
19340;HTU21D;9804;52.350;6.684;2024-03-23T15:48:25;11.36;-6.00
19340;HTU21D;9804;52.350;6.684;2024-03-23T15:50:55;11.57;-6.00
19340;HTU21D;9804;52.350;6.684;2024-03-23T15:53:21;11.63;-6.00
19340;HTU21D;9804;52.350;6.684;2024-03-23T15:55:57;11.81;-6.00
19340;HTU21D;9804;52.350;6.684;2024-03-23T15:58:23;11.44;-6.00
19340;HTU21D;9804;52.350;6.684;2024-03-23T16:01:02;11.40;-6.00
19340;HTU21D;9804;52.350;6.684;2024-03-23T16:03:28;11.20;-6.00
19340;HTU21D;9804;52.350;6.684;2024-03-23T16:08:24;11.02;-6.00
19340;HTU21D;9804;52.350;6.684;2024-03-23T16:10:50;10.74;-6.00
19340;HTU21D;9804;52.350;6.684;2024-03-23T16:13:16;10.67;-6.00
19340;HTU21D;9804;52.350;6.684;2024-03-23T16:15:43;10.90;-6.00
19340;HTU21D;9804;52.350;6.684;2024-03-23T16:18:09;10.97;-6.00
19340;HTU21D;9804;52.350;6.684;2024-03-23T16:20:34;11.64;-6.00
19340;HTU21D;9804;52.350;6.684;2024-03-23T16:23:00;11.74;-6.00
19340;HTU21D;9804;52.350;6.684;2024-03-23T16:25:26;11.71;-6.00
19340;HTU21D;9804;52.350;6.684;2024-03-23T16:27:52;11.73;-6.00
19340;HTU21D;9804;52.350;6.684;2024-03-23T16:30:17;11.73;-6.00
19340;HTU21D;9804;52.350;6.684;2024-03-23T16:32:43;11.51;-6.00
19340;HTU21D;9804;52.350;6.684;2024-03-23T16:35:09;11.63;-6.00
19340;HTU21D;9804;52.350;6.684;2024-03-23T16:37:37;11.61;-6.00
19340;HTU21D;9804;52.350;6.684;2024-03-23T16:40:03;11.93;-6.00
19340;HTU21D;9804;52.350;6.684;2024-03-23T16:42:29;11.46;-6.00
19340;HTU21D;9804;52.350;6.684;2024-03-23T16:44:55;11.34;-6.00